Williamstown, Ohio
Current Conditions -  °F | °C
As of 3:53 PM on Saturday 22 Nov 2014 (Local Time) from KFDY Reporting Station
Overcast Overcast  
Wind Chill: 51°   Ceiling: 5000
Heat Index: 51°   Visibility: 10mi
Dew Point: 41°   Wind: 22mph
Humidity: 68%   Direction: 210°SSW
Pressure: 30.01"   Gusts: 29mph
Location:  40.83°N, 83.65°W
Report Text: KFDY 222053Z AUTO 21019G25KT 10SM OVC050 11/05 A3001 RMK AO2 PK WND 22027/2010 SLP165 60002 T01060050 56018
Loading
Personal Weather Stations






























Interactive Weather Map New forecast layout! Learn more

10-Day Weather Forecast

Advertisements
Track Severe Weather on mobile